Latest Weather Observations for Maroochydore

IDQ60801

Issued at 6:35 am EST Tuesday 29 July 2014 (issued every 30 minutes, with the page automatically refreshed every 10 minutes)

About weather observations | Map of weather stations | Latest weather observations for QLD | Other Formats
Station Details ID: 040861 Name: SUNSHINE COAST AIRPORT Lat: -26.60 Lon: 153.09 Height: 3.3 m
Data from the previous 72 hours. | See also: Recent months at Maroochydore
Date/Time
EST
Temp
°C
App
Temp
°C
Dew
Point
Rel
Hum
%
Delta-T
°C
Wind Press
QNH
hPa
Press
MSL
hPa
Rain
since 9 am
mm
Dir
 
Spd
km/h
Gust
km/h
Spd
kts
Gust
kts
29/06:30am 8.3 5.7 7.7 96 0.3 W 11 13 6 7 1022.5 - 0.0
29/06:02am 8.3 5.3 7.7 96 0.3 W 13 15 7 8 1021.9 - 0.0
29/06:00am 8.3 5.3 7.7 96 0.3 WNW 13 15 7 8 1021.9 1021.9 0.0
29/05:30am 7.2 4.3 6.5 95 0.3 W 11 11 6 6 1021.6 - 0.0
29/05:00am 7.9 5.5 7.1 95 0.4 W 9 9 5 5 1021.4 - 0.0
29/04:55am 8.0 5.7 7.4 96 0.3 W 9 11 5 6 1021.4 - 0.0
29/04:39am 8.5 5.5 7.9 96 0.3 W 13 13 7 7 1021.2 - 0.0
29/04:30am 8.4 5.4 7.8 96 0.3 WNW 13 15 7 8 1021.1 - 0.0
29/04:09am 8.4 5.8 7.8 96 0.3 WNW 11 13 6 7 1021.0 - 0.0
29/04:00am 8.7 5.8 8.1 96 0.3 WNW 13 15 7 8 1020.9 - 0.0
29/03:42am 8.7 6.2 8.1 96 0.3 WNW 11 13 6 7 1021.0 - 0.0
29/03:30am 8.3 5.3 7.7 96 0.3 WNW 13 15 7 8 1020.9 - 0.0
29/03:01am 8.3 5.7 7.7 96 0.3 WNW 11 11 6 6 1021.0 - 0.0
29/03:00am 8.4 5.8 7.8 96 0.3 WNW 11 11 6 6 1021.0 1021.0 0.0
29/02:30am 8.6 5.7 8.0 96 0.3 W 13 13 7 7 1021.1 - 0.0
29/02:14am 8.2 5.1 7.4 95 0.4 W 13 15 7 8 1021.3 - 0.0
29/02:00am 7.7 5.7 7.0 95 0.3 W 7 9 4 5 1021.4 - 0.0
29/01:30am 8.4 6.5 7.6 95 0.4 WNW 7 9 4 5 1021.5 - 0.0
29/01:22am 8.3 6.4 7.5 95 0.4 WNW 7 9 4 5 1021.5 - 0.0
29/01:04am 8.5 6.3 7.7 95 0.4 WNW 9 11 5 6 1021.6 - 0.0
29/01:00am 8.7 6.5 7.9 95 0.4 WNW 9 11 5 6 1021.7 - 0.0
29/12:30am 8.5 6.3 7.7 95 0.4 W 9 11 5 6 1022.0 - 0.0
29/12:09am 8.9 7.1 8.1 95 0.4 W 7 9 4 5 1022.1 - 0.0
29/12:00am 8.7 6.5 7.8 94 0.4 W 9 11 5 6 1022.2 1022.2 0.0
 
Date/Time
EST
Temp
°C
App
Temp
°C
Dew
Point
Rel
Hum
%
Delta-T
°C
Wind Press
QNH
hPa
Press
MSL
hPa
Rain
since 9 am
mm
Dir
 
Spd
km/h
Gust
km/h
Spd
kts
Gust
kts
28/11:30pm 9.4 7.0 8.5 94 0.4 W 11 11 6 6 1022.3 - 0.0
28/11:00pm 9.9 7.6 9.1 95 0.4 W 11 11 6 6 1022.3 - 0.0
28/10:30pm 9.6 7.9 8.5 93 0.5 W 7 9 4 5 1022.5 - 0.0
28/10:00pm 9.8 8.2 8.7 93 0.5 W 7 9 4 5 1022.6 - 0.0
28/09:30pm 10.0 8.4 8.9 93 0.5 WSW 7 11 4 6 1022.6 - 0.0
28/09:00pm 10.4 8.9 9.2 92 0.6 W 7 9 4 5 1022.3 1022.3 0.0
28/08:30pm 10.9 9.0 9.2 89 0.8 W 9 11 5 6 1022.0 - 0.0
28/08:00pm 12.5 11.6 10.7 89 0.9 WSW 6 7 3 4 1021.9 - 0.0
28/07:30pm 12.5 10.9 10.2 86 1.2 WNW 9 13 5 7 1021.8 - 0.0
28/07:00pm 13.5 12.0 10.5 82 1.6 NNW 9 11 5 6 1021.5 - 0.0
28/06:30pm 15.0 13.6 11.0 77 2.1 N 9 13 5 7 1021.2 - 0.0
28/06:00pm 17.4 15.3 12.3 72 2.8 NNE 15 17 8 9 1021.0 1021.0 0.0
28/05:30pm 17.9 15.8 12.4 70 3.0 NE 15 20 8 11 1020.8 - 0.0
28/05:00pm 18.3 15.7 12.1 67 3.4 NE 17 20 9 11 1020.8 - 0.0
28/04:30pm 19.4 16.3 11.7 61 4.2 NE 19 24 10 13 1020.6 - 0.0
28/04:00pm 20.1 16.9 11.8 59 4.6 NNE 20 26 11 14 1020.3 - 0.0
28/03:30pm 20.6 16.9 11.5 56 5.0 NE 22 28 12 15 1020.3 - 0.0
28/03:00pm 21.4 18.6 12.5 57 5.0 NE 19 26 10 14 1020.3 1020.3 0.0
28/02:30pm 21.7 18.6 12.3 55 5.3 NE 20 24 11 13 1020.5 - 0.0
28/02:00pm 21.5 18.2 11.5 53 5.6 NE 20 26 11 14 1020.8 - 0.0
28/01:30pm 22.0 19.4 12.0 53 5.6 NE 17 22 9 12 1021.1 - 0.0
28/01:00pm 21.6 18.3 11.6 53 5.6 NE 20 22 11 12 1021.4 - 0.0
28/12:30pm 21.2 18.1 11.5 54 5.4 NE 19 24 10 13 1021.9 - 0.0
28/12:00pm 22.7 20.4 12.9 54 5.6 NE 17 22 9 12 1022.5 1022.5 0.0
28/11:30am 21.6 20.6 13.5 60 4.7 NE 11 15 6 8 1023.2 - 0.0
28/11:00am 20.1 19.0 12.1 60 4.5 E 9 11 5 6 1023.6 - 0.0
28/10:30am 21.9 20.4 10.7 49 6.1 N 9 19 5 10 1024.0 - 0.0
28/10:00am 20.5 19.6 11.2 55 5.1 WNW 7 9 4 5 1024.1 - 0.0
28/09:30am 19.0 19.2 13.2 69 3.3 SW 4 7 2 4 1024.2 - 0.0
28/09:00am 16.4 16.0 12.9 80 1.9 W 7 9 4 5 1024.2 1024.2 0.0
28/08:30am 14.1 13.1 12.3 89 1.0 WNW 9 11 5 6 1024.0 - 0.0
28/08:00am 12.4 11.6 11.6 95 0.4 WNW 7 11 4 6 1024.0 - 0.0
28/07:30am 10.3 8.2 9.7 96 0.3 WNW 11 13 6 7 1023.8 - 0.0
28/07:06am 8.1 5.8 7.5 96 0.3 WNW 9 13 5 7 1023.7 - 0.0
28/07:00am 7.6 4.8 7.0 96 0.3 WNW 11 13 6 7 1023.6 - 0.0
28/06:30am 6.7 4.1 6.0 95 0.3 W 9 11 5 6 1023.5 - 0.0
28/06:00am 6.9 5.6 6.2 95 0.3 W 2 9 1 5 1023.3 1023.3 0.0
28/05:30am 6.8 5.1 6.1 95 0.3 W 4 6 2 3 1023.1 - 0.0
28/05:00am 8.0 6.1 7.4 96 0.3 W 7 7 4 4 1022.8 - 0.0
28/04:52am 8.2 6.3 7.6 96 0.3 W 7 7 4 4 1022.7 - 0.0
28/04:30am 8.1 6.2 7.5 96 0.3 W 7 9 4 5 1022.6 - 0.0
28/04:15am 7.9 5.9 7.3 96 0.3 WSW 7 9 4 5 1022.5 - 0.0
28/04:11am 8.1 6.2 7.5 96 0.3 WSW 7 9 4 5 1022.6 - 0.0
28/04:00am 7.9 5.6 7.3 96 0.3 W 9 9 5 5 1022.6 - 0.0
28/03:45am 7.9 5.9 7.3 96 0.3 W 7 9 4 5 1022.6 - 0.0
28/03:43am 7.9 5.9 7.3 96 0.3 W 7 9 4 5 1022.6 - 0.0
28/03:30am 7.9 5.6 7.3 96 0.3 W 9 9 5 5 1022.6 - 0.0
28/03:00am 8.2 5.9 7.6 96 0.3 W 9 9 5 5 1022.5 1022.5 0.0
28/02:30am 8.1 5.8 7.3 95 0.4 W 9 9 5 5 1022.5 - 0.0
28/02:28am 8.0 5.6 7.2 95 0.4 W 9 9 5 5 1022.5 - 0.0
28/02:21am 8.1 5.8 7.3 95 0.4 W 9 9 5 5 1022.6 - 0.0
28/02:00am 7.9 5.9 7.0 94 0.4 W 7 9 4 5 1022.8 - 0.0
28/01:48am 7.9 5.9 7.0 94 0.4 W 7 9 4 5 1022.9 - 0.0
28/01:34am 8.0 6.0 7.2 95 0.4 W 7 9 4 5 1023.1 - 0.0
28/01:30am 8.3 6.4 7.5 95 0.4 W 7 9 4 5 1023.1 - 0.0
28/01:04am 8.6 6.8 7.8 95 0.4 W 7 9 4 5 1023.3 - 0.0
28/01:00am 9.0 7.3 8.2 95 0.4 W 7 9 4 5 1023.4 - 0.0
28/12:41am 8.4 6.5 7.5 94 0.4 W 7 9 4 5 1023.3 - 0.0
28/12:30am 8.5 6.6 7.6 94 0.4 W 7 9 4 5 1023.3 - 0.0
28/12:00am 8.7 6.5 7.8 94 0.4 W 9 11 5 6 1023.2 1023.2 0.0
 
Date/Time
EST
Temp
°C
App
Temp
°C
Dew
Point
Rel
Hum
%
Delta-T
°C
Wind Press
QNH
hPa
Press
MSL
hPa
Rain
since 9 am
mm
Dir
 
Spd
km/h
Gust
km/h
Spd
kts
Gust
kts
27/11:30pm 9.2 7.1 8.3 94 0.4 W 9 9 5 5 1023.5 - 0.0
27/11:00pm 8.6 6.3 7.5 93 0.5 W 9 9 5 5 1023.7 - 0.0
27/10:32pm 9.3 7.2 8.2 93 0.5 W 9 9 5 5 1023.7 - 0.0
27/10:30pm 9.2 7.1 8.1 93 0.5 W 9 9 5 5 1023.7 - 0.0
27/10:14pm 8.9 8.0 7.7 92 0.6 WSW 2 7 1 4 1023.6 - 0.0
27/10:00pm 9.6 8.1 8.4 92 0.6 WSW 6 7 3 4 1023.7 - 0.0
27/09:30pm 10.2 8.8 9.0 92 0.6 WSW 6 7 3 4 1023.6 - 0.0
27/09:00pm 11.3 11.3 9.7 90 0.8 CALM 0 0 0 0 1023.5 1023.5 0.0
27/08:30pm 11.6 10.2 9.7 88 1.0 WSW 7 9 4 5 1023.5 - 0.0
27/08:00pm 12.4 11.3 10.0 85 1.2 WSW 6 9 3 5 1023.3 - 0.0
27/07:30pm 13.7 12.6 9.9 78 2.0 SSW 6 9 3 5 1023.2 - 0.0
27/07:00pm 14.8 13.3 9.2 69 2.9 SW 7 11 4 6 1022.9 - 0.0
27/06:30pm 18.3 16.1 10.9 62 4.0 ESE 13 17 7 9 1022.6 - 0.0
27/06:00pm 18.5 16.5 11.6 64 3.8 ESE 13 20 7 11 1022.2 1022.2 0.0
27/05:30pm 18.7 16.4 11.8 64 3.8 ESE 15 20 8 11 1021.8 - 0.0
27/05:00pm 19.0 16.8 10.8 59 4.4 ESE 13 19 7 10 1021.5 - 0.0
27/04:30pm 19.9 16.7 9.8 52 5.4 ESE 17 22 9 12 1021.2 - 0.0
27/04:00pm 20.7 17.3 9.3 48 6.1 ESE 17 20 9 11 1021.1 - 0.0
27/03:30pm 20.7 17.1 9.9 50 5.8 ESE 19 22 10 12 1021.0 - 0.0
27/03:00pm 20.9 17.3 10.4 51 5.7 ESE 20 26 11 14 1021.0 1021.0 0.0
27/02:30pm 21.1 17.7 11.2 53 5.5 SE 20 28 11 15 1020.9 - 0.0
27/02:00pm 21.2 17.4 11.0 52 5.6 SE 22 28 12 15 1020.8 - 0.0
27/01:30pm 22.1 18.9 11.8 52 5.8 ESE 20 26 11 14 1021.1 - 0.0
27/01:00pm 23.7 19.1 5.6 31 9.2 S 19 32 10 17 1021.2 - 0.0
27/12:30pm 23.4 18.5 5.3 31 9.1 SSW 20 26 11 14 1021.6 - 0.0
27/12:00pm 23.3 18.8 4.3 29 9.3 SSW 17 24 9 13 1022.0 1022.0 0.0
27/11:30am 23.1 17.7 6.4 34 8.5 SSW 24 32 13 17 1022.5 - 0.0
27/11:00am 23.2 18.6 6.5 34 8.6 SSW 20 30 11 16 1022.9 - 0.0
27/10:30am 22.5 17.9 8.2 40 7.5 SSW 22 32 12 17 1023.3 - 0.0
27/10:00am 21.9 17.7 8.1 41 7.2 SSW 20 32 11 17 1023.5 - 0.0
27/09:30am 20.4 17.8 12.1 59 4.6 SW 17 20 9 11 1023.6 - 0.0
27/09:00am 18.6 18.7 14.5 77 2.4 SW 7 11 4 6 1023.7 1023.7 0.0
27/08:30am 16.9 17.2 15.1 89 1.0 W 7 11 4 6 1023.6 - 0.0
27/08:00am 14.8 14.7 14.0 95 0.4 W 7 9 4 5 1023.5 - 0.0
27/07:30am 12.9 13.2 12.3 96 0.3 SSW 2 7 1 4 1023.5 - 0.0
27/07:15am 11.7 10.9 11.1 96 0.3 W 6 7 3 4 1023.5 - 0.0
27/07:00am 10.5 9.3 9.7 95 0.4 WNW 6 7 3 4 1023.4 - 0.0
27/06:30am 10.1 9.2 9.3 95 0.4 W 4 9 2 5 1023.1 - 0.0
27/06:00am 10.9 11.0 10.1 95 0.4 CALM 0 0 0 0 1022.7 1022.7 0.0
27/05:40am 11.7 12.0 10.9 95 0.4 CALM 0 4 0 2 1022.5 - 0.0
27/05:30am 12.9 12.5 12.3 96 0.3 S 6 11 3 6 1022.6 - 0.0
27/05:28am 13.3 13.0 12.7 96 0.3 S 6 11 3 6 1022.6 - 0.0
27/05:00am 12.1 10.8 11.3 95 0.4 WNW 9 13 5 7 1022.4 - 0.0
27/04:30am 12.3 11.1 11.5 95 0.4 W 9 11 5 6 1022.3 - 0.0
27/04:00am 12.2 10.9 11.3 94 0.5 WNW 9 11 5 6 1022.2 - 0.0
27/03:30am 12.7 11.9 11.8 94 0.5 W 7 9 4 5 1022.3 - 0.0
27/03:08am 13.5 13.0 12.7 95 0.4 WSW 7 9 4 5 1022.4 - 0.0
27/03:00am 13.7 12.9 12.8 94 0.5 WSW 9 9 5 5 1022.4 1022.4 0.0
27/02:30am 13.6 12.7 12.7 94 0.5 WNW 9 13 5 7 1022.6 - 0.0
27/02:00am 13.9 12.7 12.8 93 0.6 WNW 11 13 6 7 1022.6 - 0.0
27/01:30am 14.3 13.6 13.2 93 0.6 W 9 11 5 6 1022.8 - 0.0
27/01:00am 15.2 14.8 14.2 94 0.6 WNW 9 13 5 7 1023.1 - 0.0
27/12:30am 15.2 14.5 14.2 94 0.6 WNW 11 11 6 6 1023.6 - 0.0
27/12:00am 15.2 14.5 14.2 94 0.6 WNW 11 15 6 8 1023.7 1023.7 0.0
 
Date/Time
EST
Temp
°C
App
Temp
°C
Dew
Point
Rel
Hum
%
Delta-T
°C
Wind Press
QNH
hPa
Press
MSL
hPa
Rain
since 9 am
mm
Dir
 
Spd
km/h
Gust
km/h
Spd
kts
Gust
kts
26/11:30pm 15.5 15.2 14.5 94 0.6 NW 9 11 5 6 1023.8 - 0.0
26/11:00pm 15.4 14.7 14.4 94 0.6 WNW 11 13 6 7 1023.9 - 0.0
26/10:30pm 15.5 15.6 14.4 93 0.6 WNW 7 9 4 5 1024.0 - 0.0
26/10:00pm 15.6 15.9 14.5 93 0.6 WNW 6 9 3 5 1024.3 - 0.0
26/09:30pm 15.3 14.9 14.2 93 0.6 NNW 9 9 5 5 1024.4 - 0.0
26/09:00pm 15.4 15.4 14.3 93 0.6 N 7 9 4 5 1024.6 1024.6 0.0
26/08:30pm 15.9 17.3 14.4 91 0.9 CALM 0 6 0 3 1024.9 - 0.0
26/08:00pm 16.6 17.1 15.1 91 0.9 SW 6 7 3 4 1025.2 - 0.0
26/07:30pm 17.0 17.7 15.7 92 0.8 S 6 9 3 5 1024.8 - 0.0
26/07:00pm 16.1 16.2 14.5 90 0.9 N 7 9 4 5 1024.8 - 0.0
26/06:30pm 16.8 16.8 15.2 90 0.9 NNW 9 11 5 6 1024.4 - 0.0
26/06:00pm 16.7 16.2 14.9 89 1.0 N 11 15 6 8 1023.9 1023.9 0.0
26/05:30pm 17.5 17.7 14.8 84 1.6 N 7 9 4 5 1023.6 - 0.0
26/05:00pm 18.6 18.7 15.5 82 1.8 N 9 11 5 6 1023.7 - 0.0
26/04:30pm 19.8 20.7 16.1 79 2.2 N 6 9 3 5 1023.5 - 0.0
26/04:00pm 20.4 21.2 16.4 78 2.4 NNW 7 11 4 6 1023.7 - 0.0
26/03:30pm 20.4 21.5 16.6 79 2.3 N 6 7 3 4 1023.8 - 0.0
26/03:00pm 20.2 20.3 16.4 79 2.3 NNE 11 13 6 7 1023.6 1023.6 0.0
26/02:30pm 20.3 20.1 16.7 80 2.2 NNE 13 15 7 8 1023.6 - 0.0
26/02:00pm 20.1 19.7 16.1 78 2.4 NE 13 15 7 8 1023.9 - 0.0
26/01:30pm 20.2 20.9 16.2 78 2.4 E 7 9 4 5 1024.4 - 0.0
26/01:00pm 20.0 20.2 15.8 77 2.5 ESE 9 13 5 7 1024.5 - 0.0
26/12:30pm 20.6 20.1 15.8 74 2.9 ESE 13 15 7 8 1024.6 - 0.0
26/12:00pm 21.3 22.4 16.5 74 2.9 NW 6 9 3 5 1025.3 1025.3 0.0
26/11:30am 20.5 21.3 15.9 75 2.7 E 6 7 3 4 1025.6 - 0.0
26/11:00am 19.7 21.7 16.0 79 2.2 CALM 0 6 0 3 1026.0 - 0.0
26/10:30am 18.8 19.5 16.0 84 1.7 SSW 7 9 4 5 1026.8 - 0.0
26/10:00am 17.6 18.2 15.9 90 1.0 W 7 11 4 6 1026.9 - 0.0
26/09:30am 16.2 17.9 15.2 94 0.6 CALM 0 6 0 3 1026.7 - 0.0
26/09:00am 15.3 15.0 14.5 95 0.5 W 9 11 5 6 1027.6 1027.6 -
26/08:30am 14.5 14.5 13.7 95 0.4 WNW 6 9 3 5 1027.3 - -
26/08:00am 13.8 13.0 13.0 95 0.4 W 9 11 5 6 1027.4 - -
26/07:30am 13.1 12.1 12.3 95 0.4 W 9 11 5 6 1026.8 - -
26/07:00am 12.8 12.3 12.0 95 0.4 W 6 7 3 4 1026.3 - -

Other Formats:

Comma delimited format used in spreadsheet applications
http://www.bom.gov.au/fwo/IDQ60801/IDQ60801.94569.axf

JavaScript Object Notation format (JSON) in row-major order
http://www.bom.gov.au/fwo/IDQ60801/IDQ60801.94569.json